Time;durP1;ratioP1;P1;durP2;ratioP2;P2;SDS_P1;SDS_P2;PMS_P1;PMS_P2;Temp;Humidity;BMP_temperature;BMP_pressure;BME280_temperature;BME280_humidity;BME280_pressure;Samples;Min_cycle;Max_cycle;Signal;HPM_P1;HPM_P2
2022/09/20 00:01:20;;;;;;;5.68;1.30;;;9.50;99.90;;;;;;5053965;28;20037;-44
2022/09/20 00:03:48;;;;;;;5.53;0.90;;;9.50;99.90;;;;;;5053970;28;20056;-44
2022/09/20 00:06:17;;;;;;;7.03;1.20;;;9.60;99.90;;;;;;5054022;28;20361;-42
2022/09/20 00:08:44;;;;;;;9.65;1.80;;;9.50;99.90;;;;;;5054008;28;20357;-43
2022/09/20 00:11:14;;;;;;;6.32;1.25;;;9.50;99.90;;;;;;5053941;28;20502;-42
2022/09/20 00:13:41;;;;;;;6.57;1.10;;;9.60;99.90;;;;;;5053655;28;20040;-44
2022/09/20 00:16:09;;;;;;;5.60;1.27;;;9.70;99.90;;;;;;5053581;28;20119;-43
2022/09/20 00:18:35;;;;;;;6.72;1.08;;;9.70;99.90;;;;;;5052530;28;20125;-47
2022/09/20 00:21:02;;;;;;;7.00;1.15;;;9.80;99.90;;;;;;5053582;28;20104;-43
2022/09/20 00:23:29;;;;;;;9.25;1.20;;;9.80;99.90;;;;;;5051750;28;20036;-43
2022/09/20 00:26:02;;;;;;;5.38;1.00;;;9.90;99.90;;;;;;5051600;28;20045;-47
2022/09/20 00:28:29;;;;;;;7.38;1.20;;;9.80;99.90;;;;;;5053351;28;20036;-44
2022/09/20 00:30:55;;;;;;;7.78;1.10;;;9.90;99.90;;;;;;5049020;28;20049;-42
2022/09/20 00:33:23;;;;;;;5.82;0.98;;;9.90;99.90;;;;;;5053438;28;20037;-44
2022/09/20 00:35:50;;;;;;;4.50;1.20;;;10.00;99.90;;;;;;5050773;28;20366;-45
2022/09/20 00:38:16;;;;;;;8.75;1.20;;;10.00;99.90;;;;;;5053261;28;20479;-42
2022/09/20 00:40:43;;;;;;;8.10;1.23;;;10.00;99.90;;;;;;5053079;28;20072;-44
2022/09/20 00:43:16;;;;;;;8.55;1.20;;;10.10;99.90;;;;;;5053154;28;20446;-44
2022/09/20 00:45:45;;;;;;;3.65;1.20;;;10.30;99.90;;;;;;5051729;28;20037;-43
2022/09/20 00:48:29;;;;;;;10.35;1.45;;;10.20;99.90;;;;;;5052980;28;20036;-44
2022/09/20 00:51:08;;;;;;;8.20;1.30;;;10.30;99.90;;;;;;5051657;28;20044;-44
2022/09/20 00:53:41;;;;;;;8.52;1.50;;;10.40;99.90;;;;;;5052774;28;20044;-47
2022/09/20 00:56:11;;;;;;;6.22;0.98;;;10.50;99.90;;;;;;5052661;28;20064;-43
2022/09/20 00:58:43;;;;;;;8.75;1.40;;;10.50;99.90;;;;;;5052893;28;20041;-44
2022/09/20 01:01:10;;;;;;;5.00;1.13;;;10.40;99.90;;;;;;5052970;28;20048;-47
2022/09/20 01:03:37;;;;;;;7.53;1.13;;;10.60;99.90;;;;;;5052646;28;20052;-43
2022/09/20 01:06:08;;;;;;;5.85;1.00;;;10.60;99.90;;;;;;5051616;28;20071;-45
2022/09/20 01:08:35;;;;;;;8.05;1.40;;;10.50;99.90;;;;;;5050236;28;20086;-44
2022/09/20 01:11:01;;;;;;;5.63;1.13;;;10.60;99.90;;;;;;5052313;28;20060;-43
2022/09/20 01:13:27;;;;;;;10.13;1.30;;;10.70;99.90;;;;;;5052444;28;20040;-44
2022/09/20 01:15:54;;;;;;;8.43;1.30;;;10.60;99.90;;;;;;5052654;28;20094;-43
2022/09/20 01:18:22;;;;;;;6.45;1.25;;;10.60;99.90;;;;;;5050908;28;20099;-43
2022/09/20 01:20:48;;;;;;;6.50;1.15;;;10.80;99.90;;;;;;5050641;28;20033;-42
2022/09/20 01:23:53;;;;;;;8.43;0.90;;;10.70;99.90;;;;;;5052526;28;20068;-45
2022/09/20 01:26:44;;;;;;;7.72;1.10;;;10.70;99.90;;;;;;5009273;28;20051;-44
2022/09/20 01:29:21;;;;;;;8.52;1.17;;;10.70;99.90;;;;;;5052430;28;20076;-47
2022/09/20 01:31:53;;;;;;;8.10;1.20;;;10.70;99.90;;;;;;5034301;28;20149;-44
2022/09/20 01:34:33;;;;;;;5.97;1.00;;;10.80;99.90;;;;;;5052178;28;20039;-44
2022/09/20 01:37:51;;;;;;;6.28;1.00;;;10.90;99.90;;;;;;5035660;28;20462;-42
2022/09/20 01:40:33;;;;;;;10.45;1.10;;;10.80;99.90;;;;;;4997022;28;20399;-47
2022/09/20 01:43:26;;;;;;;10.90;1.20;;;10.70;99.90;;;;;;5050183;28;20380;-44
2022/09/20 01:45:52;;;;;;;7.75;1.30;;;10.80;99.90;;;;;;5051820;28;20091;-43
2022/09/20 01:48:32;;;;;;;6.20;1.35;;;10.70;99.90;;;;;;5051967;28;20041;-45
2022/09/20 01:51:16;;;;;;;4.22;1.00;;;10.60;99.90;;;;;;5052324;28;20106;-44
2022/09/20 01:54:00;;;;;;;11.45;1.73;;;10.70;99.90;;;;;;5051967;28;20037;-43
2022/09/20 01:56:58;;;;;;;8.20;1.58;;;10.70;99.90;;;;;;5051554;28;20488;-43
2022/09/20 01:59:37;;;;;;;11.07;1.83;;;10.80;99.90;;;;;;5032583;28;20041;-44
2022/09/20 02:02:06;;;;;;;6.82;1.10;;;10.80;99.90;;;;;;5051709;28;20037;-43
2022/09/20 02:05:07;;;;;;;7.65;1.10;;;10.70;99.90;;;;;;5050583;28;20484;-44
2022/09/20 02:08:13;;;;;;;7.13;1.40;;;10.80;99.90;;;;;;5009909;28;20049;-43
2022/09/20 02:11:03;;;;;;;11.07;1.30;;;10.70;99.90;;;;;;5051494;28;20472;-44
2022/09/20 02:13:38;;;;;;;9.60;1.08;;;10.80;99.90;;;;;;5051637;28;20128;-42
2022/09/20 02:16:19;;;;;;;7.93;1.30;;;10.70;99.90;;;;;;5050021;28;20413;-45
2022/09/20 02:19:34;;;;;;;7.70;1.10;;;10.80;99.90;;;;;;5050260;28;20589;-44
2022/09/20 02:22:27;;;;;;;5.97;1.30;;;10.80;99.90;;;;;;4953465;28;20046;-46
2022/09/20 02:25:04;;;;;;;6.95;1.20;;;10.70;99.90;;;;;;5051514;28;20040;-43
2022/09/20 02:27:58;;;;;;;9.38;1.15;;;10.90;99.90;;;;;;5050958;28;20395;-43
2022/09/20 02:30:50;;;;;;;8.52;1.13;;;10.80;99.90;;;;;;5044060;28;20522;-46
2022/09/20 02:33:46;;;;;;;6.15;1.13;;;10.90;99.90;;;;;;5012620;28;20075;-47
2022/09/20 02:36:31;;;;;;;7.07;0.95;;;10.90;99.90;;;;;;5044848;28;20055;-45
2022/09/20 02:39:09;;;;;;;8.48;1.30;;;10.90;99.90;;;;;;5050808;28;20037;-44
2022/09/20 02:41:53;;;;;;;8.38;1.13;;;10.90;99.90;;;;;;5050852;28;20040;-47
2022/09/20 02:44:58;;;;;;;6.10;1.13;;;10.80;99.90;;;;;;5051156;28;20041;-43
2022/09/20 02:47:32;;;;;;;8.00;1.50;;;10.80;99.90;;;;;;5049998;28;20076;-43
2022/09/20 02:50:19;;;;;;;4.72;1.17;;;10.80;99.90;;;;;;5049797;28;20036;-44
2022/09/20 02:53:03;;;;;;;9.60;1.67;;;10.80;99.90;;;;;;5050906;28;20102;-45
2022/09/20 02:55:45;;;;;;;10.00;1.30;;;10.80;99.90;;;;;;5049565;28;20045;-49
2022/09/20 02:58:37;;;;;;;9.55;1.42;;;10.70;99.90;;;;;;5050620;28;20045;-44
2022/09/20 03:01:09;;;;;;;7.20;1.40;;;10.80;99.90;;;;;;5050866;28;20033;-43
2022/09/20 03:04:12;;;;;;;8.77;1.20;;;10.80;99.90;;;;;;5050869;28;20040;-44
2022/09/20 03:07:05;;;;;;;11.85;1.63;;;10.60;99.90;;;;;;5050711;28;20056;-45
2022/09/20 03:09:46;;;;;;;4.75;1.23;;;10.70;99.90;;;;;;5050589;28;20047;-45
2022/09/20 03:12:43;;;;;;;7.90;1.27;;;10.70;99.90;;;;;;5050725;28;20049;-44
2022/09/20 03:15:33;;;;;;;8.57;1.05;;;10.80;99.90;;;;;;5050848;28;20033;-43
2022/09/20 03:18:41;;;;;;;6.72;1.13;;;10.80;99.90;;;;;;5050601;28;20041;-45
2022/09/20 03:21:21;;;;;;;5.05;1.05;;;10.90;99.90;;;;;;5050267;28;20387;-44
2022/09/20 03:24:40;;;;;;;9.05;1.40;;;10.90;99.90;;;;;;5050720;28;20115;-45
2022/09/20 03:27:41;;;;;;;5.82;1.08;;;10.90;99.90;;;;;;4936819;28;20175;-44
2022/09/20 03:30:26;;;;;;;7.38;1.40;;;10.80;99.90;;;;;;4960768;28;20047;-45
2022/09/20 03:32:57;;;;;;;6.70;0.98;;;10.90;99.90;;;;;;5044614;28;20116;-45
2022/09/20 03:35:33;;;;;;;6.45;1.13;;;10.90;99.90;;;;;;5049540;28;20033;-44
2022/09/20 03:38:20;;;;;;;4.80;1.00;;;10.80;99.90;;;;;;5050371;28;20099;-43
2022/09/20 03:41:14;;;;;;;7.20;1.33;;;10.80;99.90;;;;;;5050060;28;20056;-46
2022/09/20 03:43:55;;;;;;;6.65;1.10;;;10.90;99.90;;;;;;5050172;28;20472;-45
2022/09/20 03:46:29;;;;;;;6.85;1.02;;;10.90;99.90;;;;;;5050399;28;20047;-43
2022/09/20 03:49:00;;;;;;;5.78;0.90;;;10.80;99.90;;;;;;5050143;28;20037;-43
2022/09/20 03:51:54;;;;;;;7.65;1.08;;;10.80;99.90;;;;;;5035797;28;20052;-43
2022/09/20 03:54:37;;;;;;;5.10;0.93;;;10.90;99.90;;;;;;5050428;28;20040;-43
2022/09/20 03:57:09;;;;;;;6.15;0.95;;;10.80;99.90;;;;;;5049703;28;20029;-42
2022/09/20 04:00:13;;;;;;;5.10;0.80;;;11.00;99.90;;;;;;5051983;28;20131;-46
2022/09/20 04:03:11;;;;;;;3.00;0.70;;;11.00;99.90;;;;;;4971859;28;20147;-44
2022/09/20 04:06:00;;;;;;;5.40;1.25;;;11.10;99.90;;;;;;5054151;28;20036;-43
2022/09/20 04:08:59;;;;;;;9.15;1.00;;;11.10;99.90;;;;;;5042818;28;20045;-46
2022/09/20 04:11:45;;;;;;;3.95;0.90;;;11.10;99.90;;;;;;5053728;28;20120;-46
2022/09/20 04:14:33;;;;;;;4.20;0.88;;;11.10;99.90;;;;;;5053706;28;20040;-45
2022/09/20 04:17:32;;;;;;;6.43;1.05;;;11.20;99.90;;;;;;5053733;28;20040;-46
2022/09/20 04:20:43;;;;;;;2.90;0.80;;;11.20;99.90;;;;;;5051112;28;20469;-44
2022/09/20 04:23:48;;;;;;;4.00;0.77;;;11.10;99.90;;;;;;5050473;28;20044;-45
2022/09/20 04:26:24;;;;;;;3.33;0.80;;;11.20;99.90;;;;;;5053007;28;20041;-43
2022/09/20 04:29:28;;;;;;;4.15;0.80;;;11.10;99.90;;;;;;5052068;28;20064;-44
2022/09/20 04:32:30;;;;;;;2.70;0.57;;;11.20;99.90;;;;;;5053532;28;20091;-45
2022/09/20 04:38:11;;;;;;;2.67;0.60;;;11.20;99.90;;;;;;5051860;28;20056;-43
2022/09/20 04:41:15;;;;;;;5.40;0.98;;;11.10;99.90;;;;;;5035117;28;20392;-43
2022/09/20 04:44:15;;;;;;;5.68;0.88;;;11.00;99.90;;;;;;5050506;28;20041;-46
2022/09/20 04:47:08;;;;;;;1.23;0.50;;;10.90;99.90;;;;;;5051836;28;20036;-45
2022/09/20 04:50:10;;;;;;;6.07;1.05;;;10.90;99.90;;;;;;5053071;28;20041;-45
2022/09/20 04:52:59;;;;;;;4.13;0.75;;;10.80;99.90;;;;;;5052554;28;20041;-45
2022/09/20 04:55:47;;;;;;;4.43;0.70;;;10.80;99.90;;;;;;5052974;28;20075;-44
2022/09/20 04:58:47;;;;;;;4.90;0.80;;;10.80;99.90;;;;;;5052358;28;20551;-45
2022/09/20 05:01:19;;;;;;;2.53;0.50;;;10.50;99.90;;;;;;5008515;28;20059;-44
2022/09/20 05:03:53;;;;;;;4.85;0.80;;;10.50;99.90;;;;;;5053107;28;20187;-43
2022/09/20 05:06:53;;;;;;;7.97;1.10;;;10.70;99.90;;;;;;5051295;28;20045;-45
2022/09/20 05:09:46;;;;;;;4.97;0.75;;;10.50;99.90;;;;;;5052588;28;20392;-47
2022/09/20 05:12:24;;;;;;;8.65;0.77;;;10.60;99.90;;;;;;5053022;28;20041;-44
2022/09/20 05:14:55;;;;;;;4.70;0.98;;;10.50;99.90;;;;;;5033563;28;20044;-45
2022/09/20 05:17:35;;;;;;;5.30;0.80;;;10.50;99.90;;;;;;5052507;28;20397;-43
2022/09/20 05:20:29;;;;;;;5.65;1.00;;;10.50;99.90;;;;;;5047874;28;20103;-43
2022/09/20 05:23:32;;;;;;;1.60;0.60;;;10.50;99.90;;;;;;5050336;28;20184;-44
2022/09/20 05:26:16;;;;;;;4.90;0.70;;;10.50;99.90;;;;;;5052048;28;20116;-43
2022/09/20 05:28:56;;;;;;;3.30;0.50;;;10.50;99.90;;;;;;5051162;28;20496;-44
2022/09/20 05:31:40;;;;;;;5.65;0.80;;;10.60;99.90;;;;;;5052446;28;20033;-43
2022/09/20 05:34:24;;;;;;;7.78;1.25;;;10.50;99.90;;;;;;5052384;28;20076;-45
2022/09/20 05:37:09;;;;;;;3.40;0.80;;;10.60;99.90;;;;;;5052042;28;20490;-45
2022/09/20 05:39:53;;;;;;;3.72;0.95;;;10.60;99.90;;;;;;5052168;28;20040;-44
2022/09/20 05:42:45;;;;;;;3.85;0.70;;;10.80;99.90;;;;;;5051846;28;20043;-45
2022/09/20 05:45:56;;;;;;;4.05;0.68;;;10.70;99.90;;;;;;5005356;28;20045;-44
2022/09/20 05:48:46;;;;;;;4.78;0.82;;;10.80;99.90;;;;;;5051833;28;20048;-46
2022/09/20 05:51:31;;;;;;;4.70;1.20;;;10.80;99.90;;;;;;5035043;28;20053;-44
2022/09/20 05:54:21;;;;;;;5.00;1.13;;;10.70;99.90;;;;;;5050472;28;20044;-43
2022/09/20 05:57:26;;;;;;;4.75;0.90;;;10.90;99.90;;;;;;5051386;28;20492;-43
2022/09/20 06:00:31;;;;;;;4.78;0.80;;;10.70;99.90;;;;;;5051620;28;20494;-46
2022/09/20 06:03:03;;;;;;;4.30;1.00;;;10.90;99.90;;;;;;4956379;28;20042;-46
2022/09/20 06:05:47;;;;;;;3.58;0.98;;;10.70;99.90;;;;;;4968658;28;20034;-45
2022/09/20 06:08:15;;;;;;;6.82;1.67;;;10.80;99.90;;;;;;5011300;28;20400;-42
2022/09/20 06:10:56;;;;;;;3.65;0.80;;;10.70;99.90;;;;;;5051676;28;20127;-44
2022/09/20 06:13:29;;;;;;;4.03;1.15;;;10.90;99.90;;;;;;5051085;28;20125;-45
2022/09/20 06:16:03;;;;;;;5.57;1.50;;;11.00;99.90;;;;;;5051286;28;20045;-44
2022/09/20 06:18:33;;;;;;;;;;;11.00;99.90;;;;;;5049931;28;20135;-44
2022/09/20 06:21:16;;;;;;;3.92;1.05;;;11.00;99.90;;;;;;5050728;28;19963;-43
2022/09/20 06:23:42;;;;;;;5.85;1.40;;;10.90;99.90;;;;;;5051261;28;20037;-44
2022/09/20 06:26:16;;;;;;;4.70;1.63;;;10.80;99.90;;;;;;5026175;28;20056;-44
2022/09/20 06:28:47;;;;;;;6.87;1.70;;;10.90;99.90;;;;;;5051057;28;20037;-48
2022/09/20 06:31:15;;;;;;;7.32;1.50;;;10.80;99.90;;;;;;5051274;28;20041;-46
2022/09/20 06:33:54;;;;;;;4.35;1.20;;;11.00;99.90;;;;;;5051190;28;20044;-43
2022/09/20 06:42:14;;;;;;;3.45;0.90;;;11.10;99.90;;;;;;5047397;28;19982;-43
2022/09/20 06:44:42;;;;;;;6.25;1.15;;;11.00;99.90;;;;;;5048753;28;20037;-49
2022/09/20 06:47:12;;;;;;;5.20;1.17;;;11.10;99.90;;;;;;5049373;28;20045;-44
2022/09/20 06:49:41;;;;;;;3.72;0.90;;;11.30;99.90;;;;;;5050885;28;20068;-44
2022/09/20 06:52:11;;;;;;;6.97;0.88;;;11.20;99.90;;;;;;5043939;28;20037;-46
2022/09/20 06:54:37;;;;;;;6.03;1.13;;;11.10;99.90;;;;;;5045035;28;20362;-45
2022/09/20 06:57:05;;;;;;;3.17;0.77;;;11.20;99.90;;;;;;5044908;28;20421;-46
2022/09/20 06:59:31;;;;;;;4.82;1.00;;;11.40;99.90;;;;;;5046620;28;20429;-44
2022/09/20 07:01:57;;;;;;;4.50;0.70;;;11.20;99.90;;;;;;5045189;28;20044;-46
2022/09/20 07:04:25;;;;;;;3.97;0.70;;;11.50;99.90;;;;;;5044317;28;20036;-43
2022/09/20 07:06:53;;;;;;;4.38;0.95;;;11.30;99.90;;;;;;5044341;28;20080;-43
2022/09/20 07:09:18;;;;;;;5.45;0.90;;;11.30;99.90;;;;;;5044295;28;20033;-44
2022/09/20 07:11:45;;;;;;;4.47;0.70;;;11.60;99.90;;;;;;5033205;28;20037;-43
2022/09/20 07:14:10;;;;;;;5.13;1.10;;;11.60;99.90;;;;;;5044065;28;20041;-44
2022/09/20 07:16:37;;;;;;;7.20;1.10;;;11.60;99.90;;;;;;5036058;28;20044;-46
2022/09/20 07:19:05;;;;;;;4.65;1.10;;;11.60;99.90;;;;;;5045387;28;20132;-42
2022/09/20 07:21:31;;;;;;;8.95;1.30;;;11.70;99.90;;;;;;5043275;28;20037;-43
2022/09/20 07:23:56;;;;;;;5.30;1.30;;;11.90;99.90;;;;;;5042966;28;20044;-47
2022/09/20 07:26:27;;;;;;;6.13;1.23;;;11.90;99.90;;;;;;5045712;28;20052;-45
2022/09/20 07:28:54;;;;;;;6.78;1.30;;;12.10;99.90;;;;;;5043096;28;20068;-45
2022/09/20 07:31:22;;;;;;;9.80;1.40;;;12.10;99.90;;;;;;5043293;28;20116;-44
2022/09/20 07:33:48;;;;;;;4.45;0.82;;;12.30;99.90;;;;;;5045032;28;20041;-45
2022/09/20 07:36:14;;;;;;;4.60;1.00;;;12.30;99.90;;;;;;5049323;28;20067;-46
2022/09/20 07:38:40;;;;;;;4.22;1.00;;;12.40;99.90;;;;;;5049726;28;20156;-42
2022/09/20 07:41:06;;;;;;;5.85;0.90;;;12.30;99.90;;;;;;5047075;28;20047;-44
2022/09/20 07:43:32;;;;;;;5.40;0.93;;;12.50;99.90;;;;;;5049928;28;20041;-43
2022/09/20 07:45:58;;;;;;;4.47;1.20;;;12.40;99.90;;;;;;5049557;28;20033;-44
2022/09/20 07:48:28;;;;;;;4.13;0.90;;;12.40;99.90;;;;;;5048168;28;20045;-43
2022/09/20 07:51:01;;;;;;;4.80;0.95;;;12.50;99.90;;;;;;5051129;28;20037;-43
2022/09/20 07:53:27;;;;;;;8.35;1.35;;;12.40;99.90;;;;;;5049709;28;20104;-46
2022/09/20 07:56:00;;;;;;;7.32;0.90;;;12.40;99.90;;;;;;5047682;28;20124;-44
2022/09/20 07:58:26;;;;;;;6.18;1.20;;;12.60;99.90;;;;;;5047745;28;20033;-43
2022/09/20 08:00:59;;;;;;;3.03;0.70;;;12.50;99.90;;;;;;5047276;28;20044;-43
2022/09/20 08:03:25;;;;;;;7.00;1.00;;;12.70;99.90;;;;;;5047459;28;20047;-43
2022/09/20 08:05:57;;;;;;;6.20;0.95;;;12.90;99.90;;;;;;5046277;28;20644;-43
2022/09/20 08:08:23;;;;;;;5.70;1.02;;;12.80;99.90;;;;;;5046470;28;20171;-42
2022/09/20 08:10:49;;;;;;;5.05;1.23;;;13.00;99.90;;;;;;5038132;28;20054;-43
2022/09/20 08:13:15;;;;;;;7.78;1.15;;;13.10;99.90;;;;;;5045903;28;20111;-44
2022/09/20 08:15:42;;;;;;;6.45;1.13;;;13.20;99.90;;;;;;5046902;28;21662;-44
2022/09/20 08:18:10;;;;;;;4.43;0.98;;;13.40;99.90;;;;;;5049918;28;20514;-44
2022/09/20 08:20:37;;;;;;;5.60;1.08;;;13.30;99.90;;;;;;5048064;28;20312;-43
2022/09/20 08:23:08;;;;;;;5.32;1.10;;;13.20;99.90;;;;;;5039552;28;20140;-44
2022/09/20 08:25:33;;;;;;;5.97;0.90;;;13.30;99.90;;;;;;5042917;28;20403;-44
2022/09/20 08:27:59;;;;;;;5.18;1.05;;;13.20;99.90;;;;;;5050351;28;20033;-46
2022/09/20 08:30:25;;;;;;;4.95;1.02;;;13.40;99.90;;;;;;5050843;28;20048;-43
2022/09/20 08:32:52;;;;;;;4.45;1.13;;;13.30;99.90;;;;;;5034230;28;20110;-44
2022/09/20 08:35:18;;;;;;;4.10;0.85;;;13.30;99.90;;;;;;5053054;28;20044;-44
2022/09/20 08:37:44;;;;;;;4.45;0.95;;;13.30;99.90;;;;;;5035137;28;20037;-45
2022/09/20 08:40:14;;;;;;;5.00;1.20;;;13.30;99.90;;;;;;5052614;28;20037;-44
2022/09/20 08:42:43;;;;;;;6.60;0.90;;;13.30;99.90;;;;;;5052936;28;20040;-44
2022/09/20 08:45:21;;;;;;;4.65;0.95;;;13.60;99.90;;;;;;5052300;28;20068;-44
2022/09/20 08:47:50;;;;;;;3.53;1.10;;;13.60;99.90;;;;;;5047848;28;20040;-46
2022/09/20 08:50:16;;;;;;;4.95;1.05;;;13.80;99.90;;;;;;5050661;28;20029;-45
2022/09/20 08:52:48;;;;;;;4.30;1.00;;;14.00;99.90;;;;;;5048679;28;20029;-44
2022/09/20 08:55:18;;;;;;;4.05;1.00;;;14.40;99.90;;;;;;5046314;28;20479;-47
2022/09/20 08:57:48;;;;;;;6.78;1.15;;;14.40;99.90;;;;;;5044103;28;20044;-47
2022/09/20 09:00:19;;;;;;;3.80;1.00;;;14.60;99.90;;;;;;5046621;28;20044;-48
2022/09/20 09:02:46;;;;;;;6.20;0.93;;;14.70;99.90;;;;;;5050272;28;20044;-45
2022/09/20 09:05:33;;;;;;;5.15;1.23;;;14.70;99.90;;;;;;5049672;28;20427;-45
2022/09/20 09:08:05;;;;;;;4.95;0.90;;;14.70;99.90;;;;;;5046207;28;20033;-45
2022/09/20 09:10:36;;;;;;;5.40;0.90;;;14.70;99.90;;;;;;5043628;28;20029;-44
2022/09/20 09:13:04;;;;;;;6.80;1.02;;;14.60;99.90;;;;;;5047090;28;20115;-44
2022/09/20 09:15:35;;;;;;;5.18;0.80;;;14.90;99.90;;;;;;5050175;28;20438;-44
2022/09/20 09:18:01;;;;;;;7.10;1.30;;;14.70;99.90;;;;;;5050010;28;20029;-47
2022/09/20 09:20:27;;;;;;;3.95;0.85;;;14.80;99.90;;;;;;5034065;28;20515;-47
2022/09/20 09:23:07;;;;;;;9.85;1.23;;;14.90;99.90;;;;;;5052194;28;20036;-45
2022/09/20 09:25:38;;;;;;;5.05;1.08;;;14.80;99.90;;;;;;5051812;28;20045;-44
2022/09/20 09:28:07;;;;;;;5.10;1.20;;;14.70;99.90;;;;;;5051676;28;20033;-47
2022/09/20 09:30:36;;;;;;;7.25;1.33;;;14.70;99.90;;;;;;5051558;28;20044;-45
2022/09/20 09:33:22;;;;;;;8.43;1.42;;;15.00;99.90;;;;;;5051838;28;20049;-43
2022/09/20 09:35:58;;;;;;;5.95;0.90;;;15.10;99.90;;;;;;5050455;28;20075;-45
2022/09/20 09:38:32;;;;;;;7.93;1.20;;;15.30;99.90;;;;;;5051774;28;20503;-44
2022/09/20 09:40:59;;;;;;;4.50;0.90;;;15.60;99.90;;;;;;5051684;28;20049;-44
2022/09/20 09:43:28;;;;;;;7.63;2.88;;;15.50;99.90;;;;;;5051288;28;20033;-47
2022/09/20 09:46:14;;;;;;;4.97;1.48;;;15.80;99.90;;;;;;5051532;28;20534;-46
2022/09/20 09:48:40;;;;;;;8.25;1.90;;;15.70;99.90;;;;;;5049592;28;20108;-46
2022/09/20 09:51:11;;;;;;;5.85;1.10;;;15.60;99.90;;;;;;5049453;28;20472;-48
2022/09/20 09:53:38;;;;;;;10.45;2.85;;;15.80;99.90;;;;;;5048961;28;20041;-44
2022/09/20 09:56:07;;;;;;;5.70;2.25;;;16.00;99.90;;;;;;5036919;28;20143;-45
2022/09/20 09:58:58;;;;;;;5.30;0.93;;;16.30;99.90;;;;;;5046000;28;20171;-46
2022/09/20 10:01:38;;;;;;;7.05;1.25;;;16.10;99.90;;;;;;5048882;28;20122;-45
2022/09/20 10:04:40;;;;;;;5.43;0.90;;;16.10;99.90;;;;;;5049278;28;20037;-44
2022/09/20 10:07:16;;;;;;;4.32;0.73;;;15.70;99.90;;;;;;5049436;28;20060;-47
2022/09/20 10:09:52;;;;;;;7.50;2.00;;;15.90;99.90;;;;;;5050777;28;20114;-46
2022/09/20 10:12:43;;;;;;;7.53;1.35;;;16.20;99.90;;;;;;5050985;28;20032;-44
2022/09/20 10:15:45;;;;;;;6.30;1.08;;;16.20;99.90;;;;;;5049701;28;20048;-45
2022/09/20 10:18:44;;;;;;;4.88;1.00;;;15.90;99.90;;;;;;4987263;28;20038;-44
2022/09/20 10:21:51;;;;;;;7.53;1.40;;;15.80;99.90;;;;;;5048526;28;20132;-43
2022/09/20 10:24:29;;;;;;;8.48;1.67;;;15.60;99.90;;;;;;5045975;28;20035;-46
2022/09/20 10:27:17;;;;;;;6.97;1.10;;;15.40;99.90;;;;;;5043311;28;20053;-46
2022/09/20 10:30:02;;;;;;;6.40;1.42;;;15.30;99.90;;;;;;5022734;28;20037;-47
2022/09/20 10:32:55;;;;;;;3.78;0.77;;;15.10;99.90;;;;;;5031820;28;20500;-45
2022/09/20 10:35:58;;;;;;;6.47;1.10;;;14.90;99.90;;;;;;5046416;28;20105;-45
2022/09/20 10:38:29;;;;;;;5.97;1.10;;;14.70;99.90;;;;;;5044101;28;20044;-44
2022/09/20 10:44:09;;;;;;;7.85;1.08;;;14.50;99.90;;;;;;5043298;28;20040;-45
2022/09/20 10:46:40;;;;;;;;;;;14.50;99.90;;;;;;5048033;28;20037;-44
2022/09/20 10:49:33;;;;;;;4.60;1.05;;;14.40;99.90;;;;;;5046203;28;19920;-44
2022/09/20 10:52:05;;;;;;;5.28;1.50;;;14.50;99.90;;;;;;5048770;28;20122;-44
2022/09/20 10:54:57;;;;;;;6.45;1.65;;;14.70;99.90;;;;;;5040799;28;20040;-46
2022/09/20 10:57:52;;;;;;;9.27;1.23;;;14.80;99.90;;;;;;5042146;28;20088;-44
2022/09/20 11:00:45;;;;;;;6.97;1.10;;;15.00;99.90;;;;;;5044999;28;20480;-44
2022/09/20 11:03:33;;;;;;;9.40;1.20;;;15.10;99.90;;;;;;5048300;28;20040;-45
2022/09/20 11:06:37;;;;;;;6.13;0.98;;;15.20;99.90;;;;;;5046578;28;20045;-45
2022/09/20 11:09:08;;;;;;;3.60;0.70;;;15.30;99.90;;;;;;5049183;28;20041;-46
2022/09/20 11:11:41;;;;;;;5.75;1.00;;;15.50;99.90;;;;;;5049623;28;20651;-46
2022/09/20 11:14:18;;;;;;;3.60;1.15;;;15.60;99.90;;;;;;5048444;28;20045;-44
2022/09/20 11:16:59;;;;;;;6.68;0.98;;;15.60;99.90;;;;;;5029341;28;20041;-45
2022/09/20 11:19:47;;;;;;;4.75;0.73;;;15.70;99.90;;;;;;5042967;28;20084;-45
2022/09/20 11:22:18;;;;;;;3.53;0.85;;;15.80;99.90;;;;;;5048984;28;20068;-45
2022/09/20 11:24:55;;;;;;;4.90;0.90;;;16.40;99.90;;;;;;5049398;28;20036;-46
2022/09/20 11:27:50;;;;;;;5.78;1.02;;;16.60;99.90;;;;;;5042336;28;20033;-45
2022/09/20 11:30:19;;;;;;;5.40;0.90;;;16.90;99.90;;;;;;5041887;28;20052;-46
2022/09/20 11:33:14;;;;;;;5.15;1.02;;;17.30;99.90;;;;;;5046802;28;20055;-45
2022/09/20 11:35:51;;;;;;;3.45;0.90;;;17.60;99.90;;;;;;5028778;28;20049;-44
2022/09/20 11:39:00;;;;;;;3.47;0.75;;;17.80;99.90;;;;;;5026684;28;20051;-45
2022/09/20 11:41:29;;;;;;;4.55;1.00;;;17.90;99.90;;;;;;4998543;28;20045;-46
2022/09/20 11:44:01;;;;;;;7.10;0.80;;;18.30;99.90;;;;;;4995057;28;20049;-46
2022/09/20 11:46:38;;;;;;;7.68;0.95;;;18.60;99.90;;;;;;5023805;28;20136;-48
2022/09/20 11:49:12;;;;;;;3.83;0.63;;;18.20;99.00;;;;;;5044550;28;20037;-49
2022/09/20 11:52:19;;;;;;;3.83;0.90;;;17.80;99.90;;;;;;5047855;28;20607;-43
2022/09/20 11:54:54;;;;;;;4.30;0.77;;;17.40;99.60;;;;;;5039745;28;20061;-48
2022/09/20 11:57:21;;;;;;;3.72;0.70;;;16.90;99.90;;;;;;5048804;28;20061;-44
2022/09/20 12:00:09;;;;;;;8.30;1.67;;;16.30;99.90;;;;;;5047044;28;20547;-44
2022/09/20 12:02:47;;;;;;;6.72;1.42;;;15.50;99.90;;;;;;5046962;28;20037;-46
2022/09/20 12:05:32;;;;;;;7.40;1.05;;;15.00;99.90;;;;;;5039814;28;20038;-44
2022/09/20 12:08:00;;;;;;;5.35;0.90;;;14.90;99.90;;;;;;5044431;28;20492;-45
2022/09/20 12:10:29;;;;;;;5.65;1.10;;;14.70;99.90;;;;;;5046938;28;20067;-47
2022/09/20 12:13:07;;;;;;;4.63;0.82;;;14.70;99.90;;;;;;5048427;28;20134;-44
2022/09/20 12:15:39;;;;;;;7.20;1.20;;;14.60;99.90;;;;;;5029796;28;20041;-43
2022/09/20 12:18:14;;;;;;;7.22;1.33;;;14.60;99.90;;;;;;5047225;28;20040;-43
2022/09/20 12:20:41;;;;;;;5.18;0.90;;;14.60;99.90;;;;;;5048962;28;20045;-45
2022/09/20 12:23:44;;;;;;;5.00;0.90;;;14.70;99.90;;;;;;5067467;28;20049;-43
2022/09/20 12:26:19;;;;;;;4.53;0.77;;;14.80;99.90;;;;;;5050088;28;20136;-43
2022/09/20 12:28:49;;;;;;;5.38;1.08;;;14.80;99.90;;;;;;5049575;28;20099;-44
2022/09/20 12:31:21;;;;;;;5.90;1.00;;;15.00;99.90;;;;;;5051742;28;20049;-45
2022/09/20 12:34:12;;;;;;;5.95;1.27;;;15.10;99.90;;;;;;5049658;28;20492;-44
2022/09/20 12:36:52;;;;;;;4.65;1.10;;;15.00;99.90;;;;;;5051804;28;20637;-46
2022/09/20 12:39:30;;;;;;;5.88;1.00;;;15.00;99.90;;;;;;5052811;28;20044;-46
2022/09/20 12:42:08;;;;;;;5.13;0.80;;;15.20;99.90;;;;;;5053148;28;20037;-44
2022/09/20 12:44:48;;;;;;;4.93;1.02;;;16.80;99.90;;;;;;5053382;28;20037;-46
2022/09/20 12:47:20;;;;;;;4.15;0.80;;;16.50;99.90;;;;;;5053509;28;20507;-47
2022/09/20 12:52:59;;;;;;;4.43;0.60;;;17.70;99.90;;;;;;5053333;28;20033;-46
2022/09/20 12:55:51;;;;;;;3.03;0.68;;;18.00;99.90;;;;;;5052150;28;20062;-45
2022/09/20 12:58:22;;;;;;;7.07;1.08;;;17.40;99.90;;;;;;5052791;28;20094;-44
2022/09/20 13:00:51;;;;;;;4.45;0.57;;;17.00;99.90;;;;;;5051318;28;20057;-46
2022/09/20 13:03:36;;;;;;;5.10;0.93;;;16.80;99.90;;;;;;5052888;28;20041;-46
2022/09/20 13:06:05;;;;;;;3.70;0.70;;;17.00;99.90;;;;;;5053004;28;20110;-44
2022/09/20 13:09:03;;;;;;;3.95;0.90;;;17.60;99.90;;;;;;5052515;28;20037;-45
2022/09/20 13:11:43;;;;;;;3.08;0.80;;;17.60;99.90;;;;;;5067102;28;20087;-45
2022/09/20 13:14:30;;;;;;;4.22;0.70;;;17.50;99.90;;;;;;5052927;28;20494;-44
2022/09/20 13:17:04;;;;;;;3.00;0.80;;;17.20;99.90;;;;;;5052413;28;20108;-44
2022/09/20 13:19:37;;;;;;;5.20;1.00;;;17.40;99.90;;;;;;5052252;28;20045;-44
2022/09/20 13:22:22;;;;;;;4.90;0.80;;;18.20;99.90;;;;;;5052778;28;20116;-46
2022/09/20 13:24:58;;;;;;;4.20;0.82;;;17.90;99.90;;;;;;5052491;28;20067;-45
2022/09/20 13:27:34;;;;;;;7.40;0.88;;;17.40;99.90;;;;;;5051952;28;20090;-45
2022/09/20 13:30:18;;;;;;;5.15;0.90;;;17.00;99.90;;;;;;5052270;28;20041;-43
2022/09/20 13:32:44;;;;;;;5.88;1.00;;;16.60;99.90;;;;;;5036818;28;20039;-44
2022/09/20 13:35:12;;;;;;;4.28;0.70;;;16.30;99.90;;;;;;5052594;28;20039;-45
2022/09/20 13:37:52;;;;;;;3.75;0.70;;;16.20;99.90;;;;;;5052089;28;20033;-44
2022/09/20 13:40:18;;;;;;;5.70;0.88;;;16.10;99.90;;;;;;5050892;28;20040;-45
2022/09/20 13:42:46;;;;;;;4.85;0.90;;;16.00;99.90;;;;;;5051937;28;20037;-44
2022/09/20 13:45:13;;;;;;;6.55;0.95;;;16.00;99.90;;;;;;5052044;28;20125;-46
2022/09/20 13:47:42;;;;;;;3.58;0.80;;;16.10;99.90;;;;;;5051958;28;20543;-45
2022/09/20 13:50:17;;;;;;;5.35;1.10;;;16.10;99.90;;;;;;5052168;28;20498;-44
2022/09/20 13:52:46;;;;;;;4.45;1.00;;;16.50;99.90;;;;;;5052165;28;20120;-46
2022/09/20 13:55:33;;;;;;;5.30;0.85;;;16.90;99.90;;;;;;5052109;28;20041;-44
2022/09/20 13:58:08;;;;;;;3.20;0.77;;;17.40;99.90;;;;;;5051555;28;20040;-45
2022/09/20 14:00:36;;;;;;;6.43;0.95;;;17.60;99.90;;;;;;5051781;28;20106;-44
2022/09/20 14:03:03;;;;;;;4.20;0.73;;;17.50;99.90;;;;;;5051897;28;20031;-44